Time;durP1;ratioP1;P1;durP2;ratioP2;P2;SDS_P1;SDS_P2;PMS_P1;PMS_P2;Temp;Humidity;BMP_temperature;BMP_pressure;BME280_temperature;BME280_humidity;BME280_pressure;Samples;Min_cycle;Max_cycle;Signal;HPM_P1;HPM_P2
2022/07/31 00:00:38;;;;;;;3.13;2.87;;;21.20;99.90;;;;;;5092226;28;20445;-42
2022/07/31 00:03:03;;;;;;;3.50;2.67;;;21.20;99.90;;;;;;5092068;28;20422;-43
2022/07/31 00:05:29;;;;;;;3.33;3.03;;;21.20;99.90;;;;;;5092020;28;20231;-44
2022/07/31 00:07:56;;;;;;;2.80;2.40;;;21.20;99.90;;;;;;5091183;28;20591;-42
2022/07/31 00:10:22;;;;;;;4.50;2.63;;;21.10;99.90;;;;;;5091813;28;20426;-42
2022/07/31 00:12:47;;;;;;;3.60;2.90;;;21.10;99.90;;;;;;5091942;28;20817;-43
2022/07/31 00:15:13;;;;;;;2.70;2.50;;;21.10;99.90;;;;;;5091861;28;20431;-42
2022/07/31 00:17:41;;;;;;;2.80;2.60;;;21.10;99.90;;;;;;5091163;28;20184;-44
2022/07/31 00:20:07;;;;;;;3.07;2.77;;;21.00;99.90;;;;;;5090851;28;20180;-44
2022/07/31 00:22:34;;;;;;;3.03;2.60;;;21.00;99.90;;;;;;5091609;28;21170;-46
2022/07/31 00:25:00;;;;;;;5.30;2.90;;;21.00;99.90;;;;;;5091584;28;20473;-43
2022/07/31 00:27:25;;;;;;;3.00;2.80;;;21.00;99.90;;;;;;5090941;28;20462;-42
2022/07/31 00:29:51;;;;;;;3.30;2.90;;;21.00;99.90;;;;;;5091545;28;20188;-42
2022/07/31 00:32:17;;;;;;;3.87;2.80;;;20.90;99.90;;;;;;5091664;28;20241;-43
2022/07/31 00:34:43;;;;;;;5.67;3.13;;;20.90;99.90;;;;;;5091321;28;20219;-44
2022/07/31 00:37:09;;;;;;;3.17;2.87;;;20.90;99.90;;;;;;5090693;28;20188;-43
2022/07/31 00:39:35;;;;;;;4.23;3.67;;;20.90;99.90;;;;;;5091493;28;20265;-42
2022/07/31 00:42:01;;;;;;;4.43;2.90;;;20.90;99.90;;;;;;5091582;28;20633;-42
2022/07/31 00:44:27;;;;;;;4.10;3.60;;;20.90;99.90;;;;;;5088720;28;20885;-42
2022/07/31 00:46:53;;;;;;;3.50;3.20;;;20.90;99.90;;;;;;5101140;28;20984;-42
2022/07/31 00:49:19;;;;;;;3.23;3.00;;;20.80;99.90;;;;;;5094781;27;20484;-42
2022/07/31 00:51:45;;;;;;;3.90;3.60;;;20.80;99.90;;;;;;5091013;28;20422;-42
2022/07/31 00:54:11;;;;;;;3.77;3.43;;;20.70;99.90;;;;;;5091079;28;20488;-42
2022/07/31 00:56:37;;;;;;;4.50;3.50;;;20.60;99.90;;;;;;5105604;28;20278;-43
2022/07/31 00:59:03;;;;;;;4.50;3.37;;;20.60;99.90;;;;;;5090982;28;20326;-43
2022/07/31 01:01:29;;;;;;;4.20;3.60;;;20.60;99.90;;;;;;5091013;28;20200;-45
2022/07/31 01:03:55;;;;;;;4.93;3.27;;;20.60;99.90;;;;;;5090962;28;20506;-47
2022/07/31 01:06:21;;;;;;;3.90;3.60;;;20.60;99.90;;;;;;5090520;28;20470;-43
2022/07/31 01:08:47;;;;;;;5.03;3.30;;;20.60;99.90;;;;;;5090104;28;20462;-42
2022/07/31 01:11:18;;;;;;;4.63;3.90;;;20.60;99.90;;;;;;5090810;28;20204;-42
2022/07/31 01:14:00;;;;;;;6.10;4.17;;;20.60;99.90;;;;;;5090668;28;20426;-42
2022/07/31 01:16:32;;;;;;;5.70;3.33;;;20.60;99.90;;;;;;5090691;28;20437;-42
2022/07/31 01:19:02;;;;;;;4.27;3.67;;;20.50;99.90;;;;;;5092175;28;20420;-44
2022/07/31 01:21:37;;;;;;;5.40;3.70;;;20.50;99.90;;;;;;5102233;28;20422;-43
2022/07/31 01:24:18;;;;;;;4.90;3.60;;;20.40;99.90;;;;;;5090640;28;20430;-43
2022/07/31 01:26:53;;;;;;;3.73;3.43;;;20.30;99.90;;;;;;5089717;28;20497;-43
2022/07/31 01:29:28;;;;;;;3.37;3.07;;;20.30;99.90;;;;;;5090391;28;20413;-42
2022/07/31 01:31:56;;;;;;;3.80;3.50;;;20.20;99.90;;;;;;5090274;28;20464;-43
2022/07/31 01:34:41;;;;;;;3.93;3.63;;;20.30;99.90;;;;;;5090342;28;20952;-45
2022/07/31 01:37:16;;;;;;;3.63;3.23;;;20.20;99.90;;;;;;5089478;28;20434;-42
2022/07/31 01:39:48;;;;;;;4.30;2.90;;;20.20;99.90;;;;;;5090149;28;20429;-43
2022/07/31 01:42:17;;;;;;;3.83;3.20;;;20.10;99.90;;;;;;5090493;28;20878;-43
2022/07/31 01:44:44;;;;;;;4.23;3.40;;;19.90;99.90;;;;;;5090258;28;20435;-43
2022/07/31 01:47:15;;;;;;;3.80;3.37;;;19.90;99.90;;;;;;5089721;28;20496;-42
2022/07/31 01:49:43;;;;;;;3.87;3.57;;;19.80;99.90;;;;;;5089601;28;20437;-43
2022/07/31 01:52:11;;;;;;;4.07;3.77;;;19.90;99.90;;;;;;5090109;28;20819;-43
2022/07/31 01:54:38;;;;;;;3.70;3.40;;;19.80;99.90;;;;;;5098386;28;20447;-44
2022/07/31 01:57:05;;;;;;;4.80;3.77;;;19.80;99.90;;;;;;5082479;28;20868;-42
2022/07/31 01:59:34;;;;;;;4.00;3.50;;;19.80;99.90;;;;;;5089971;28;20472;-44
2022/07/31 02:02:02;;;;;;;5.23;3.80;;;19.70;99.90;;;;;;5090162;28;20750;-45
2022/07/31 02:04:28;;;;;;;4.47;3.77;;;19.60;99.90;;;;;;5090013;28;20430;-43
2022/07/31 02:06:54;;;;;;;5.00;3.70;;;19.60;99.90;;;;;;5089103;28;20572;-42
2022/07/31 02:09:23;;;;;;;3.73;3.43;;;19.50;99.90;;;;;;5080794;28;20419;-42
2022/07/31 02:11:50;;;;;;;3.83;3.53;;;19.40;99.90;;;;;;5084832;28;20509;-43
2022/07/31 02:14:18;;;;;;;5.20;3.53;;;19.40;99.90;;;;;;5090031;28;20990;-43
2022/07/31 02:16:45;;;;;;;3.87;3.57;;;19.40;99.90;;;;;;5089362;28;20434;-43
2022/07/31 02:19:13;;;;;;;4.23;3.40;;;19.50;99.90;;;;;;5088833;28;20774;-43
2022/07/31 02:21:40;;;;;;;3.90;3.60;;;19.50;99.90;;;;;;5089634;28;20442;-44
2022/07/31 02:24:07;;;;;;;6.63;3.50;;;19.50;99.90;;;;;;5089880;28;20453;-44
2022/07/31 02:26:34;;;;;;;4.07;3.67;;;19.50;99.90;;;;;;5089018;28;20458;-43
2022/07/31 02:29:01;;;;;;;4.37;3.70;;;19.50;99.90;;;;;;5089860;28;20426;-42
2022/07/31 02:31:30;;;;;;;4.37;3.97;;;19.50;99.90;;;;;;5089655;28;20423;-42
2022/07/31 02:33:56;;;;;;;3.87;3.47;;;19.50;99.90;;;;;;5089605;28;20478;-42
2022/07/31 02:36:23;;;;;;;3.27;2.97;;;19.50;99.90;;;;;;5089759;28;20434;-43
2022/07/31 02:38:50;;;;;;;3.80;3.40;;;19.50;99.90;;;;;;5089198;28;20210;-43
2022/07/31 02:41:16;;;;;;;4.27;3.70;;;19.60;99.90;;;;;;5089599;28;20472;-44
2022/07/31 02:43:43;;;;;;;4.70;3.80;;;19.60;99.90;;;;;;5089646;28;20430;-44
2022/07/31 02:46:11;;;;;;;3.83;3.50;;;19.60;99.90;;;;;;5089625;28;20539;-45
2022/07/31 02:48:38;;;;;;;3.83;3.53;;;19.50;99.90;;;;;;5090631;28;20456;-43
2022/07/31 02:51:05;;;;;;;4.00;3.70;;;19.40;99.90;;;;;;5094919;28;20433;-45
2022/07/31 02:53:32;;;;;;;3.97;3.57;;;19.40;99.90;;;;;;5105330;27;20825;-45
2022/07/31 02:56:00;;;;;;;3.57;3.27;;;19.40;99.90;;;;;;5095525;28;20984;-43
2022/07/31 02:58:26;;;;;;;4.07;3.57;;;19.40;99.90;;;;;;5091388;28;20571;-44
2022/07/31 03:01:04;;;;;;;5.93;4.27;;;19.40;99.90;;;;;;5092310;28;20430;-42
2022/07/31 03:03:30;;;;;;;4.30;4.00;;;19.40;99.90;;;;;;5105172;28;20453;-42
2022/07/31 03:05:56;;;;;;;4.20;3.90;;;19.30;99.90;;;;;;5093215;28;20859;-43
2022/07/31 03:08:22;;;;;;;4.27;3.87;;;19.30;99.90;;;;;;5092610;28;20814;-45
2022/07/31 03:10:48;;;;;;;4.30;3.90;;;19.40;99.90;;;;;;5093103;28;20426;-42
2022/07/31 03:13:15;;;;;;;3.63;3.17;;;19.40;99.90;;;;;;5093104;28;20425;-42
2022/07/31 03:15:43;;;;;;;4.17;3.10;;;19.30;99.90;;;;;;5092961;28;20953;-43
2022/07/31 03:18:13;;;;;;;3.80;3.50;;;19.40;99.90;;;;;;5092542;28;20418;-42
2022/07/31 03:20:41;;;;;;;3.40;3.10;;;19.30;99.90;;;;;;5092025;28;20883;-42
2022/07/31 03:23:10;;;;;;;3.40;2.97;;;19.30;99.90;;;;;;5091700;28;20454;-45
2022/07/31 03:25:36;;;;;;;3.80;3.50;;;19.30;99.90;;;;;;5092510;28;20523;-44
2022/07/31 03:28:02;;;;;;;3.53;3.23;;;19.30;99.90;;;;;;5088834;28;20410;-44
2022/07/31 03:30:27;;;;;;;3.77;3.40;;;19.30;99.90;;;;;;5107580;28;20437;-43
2022/07/31 03:32:55;;;;;;;3.83;3.47;;;19.30;99.90;;;;;;5098833;27;20192;-45
2022/07/31 03:35:21;;;;;;;3.93;3.00;;;19.30;99.90;;;;;;5092751;28;20242;-42
2022/07/31 03:37:47;;;;;;;3.83;3.23;;;19.30;99.90;;;;;;5091908;28;20450;-44
2022/07/31 03:40:13;;;;;;;3.53;3.20;;;19.20;99.90;;;;;;5096703;28;20457;-44
2022/07/31 03:42:39;;;;;;;4.03;3.37;;;19.20;99.90;;;;;;5095785;28;20184;-44
2022/07/31 03:45:06;;;;;;;5.27;3.33;;;19.10;99.90;;;;;;5092588;28;20506;-43
2022/07/31 03:47:32;;;;;;;3.37;3.10;;;19.10;99.90;;;;;;5091861;28;20826;-42
2022/07/31 03:50:00;;;;;;;2.97;2.77;;;19.10;99.90;;;;;;5092414;28;20425;-44
2022/07/31 03:52:28;;;;;;;4.20;3.60;;;19.20;99.90;;;;;;5092339;28;20422;-46
2022/07/31 03:54:54;;;;;;;4.37;3.43;;;19.10;99.90;;;;;;5092393;28;20539;-42
2022/07/31 03:57:21;;;;;;;3.20;2.90;;;19.10;99.90;;;;;;5091436;28;20427;-42
2022/07/31 03:59:49;;;;;;;3.57;3.27;;;19.10;99.90;;;;;;5090613;28;20533;-44
2022/07/31 04:02:16;;;;;;;3.80;3.40;;;19.10;99.90;;;;;;5092061;28;20952;-44
2022/07/31 04:04:42;;;;;;;4.60;3.40;;;19.20;99.90;;;;;;5092087;28;20831;-42
2022/07/31 04:07:08;;;;;;;3.43;3.10;;;19.20;99.90;;;;;;5090010;28;20466;-44
2022/07/31 04:09:34;;;;;;;4.97;3.67;;;19.30;99.90;;;;;;5092059;28;20508;-42
2022/07/31 04:11:59;;;;;;;3.30;3.10;;;19.40;99.90;;;;;;5090680;28;20919;-42
2022/07/31 04:14:25;;;;;;;3.63;3.33;;;19.50;99.90;;;;;;5092018;28;20212;-45
2022/07/31 04:16:51;;;;;;;3.53;3.23;;;19.50;99.90;;;;;;5091533;28;20204;-44
2022/07/31 04:19:16;;;;;;;4.17;3.03;;;19.50;99.90;;;;;;5090367;28;20192;-43
2022/07/31 04:21:42;;;;;;;3.53;3.20;;;19.60;99.90;;;;;;5090470;28;20283;-46
2022/07/31 04:24:10;;;;;;;3.67;3.13;;;19.60;99.90;;;;;;5091518;28;20192;-43
2022/07/31 04:26:36;;;;;;;3.60;2.90;;;19.70;99.90;;;;;;5091053;28;20215;-42
2022/07/31 04:29:01;;;;;;;5.10;3.20;;;19.70;99.90;;;;;;5091568;28;20505;-45
2022/07/31 04:31:27;;;;;;;6.87;3.20;;;19.70;99.90;;;;;;5091624;28;20689;-43
2022/07/31 04:33:53;;;;;;;3.30;2.80;;;19.80;99.90;;;;;;5091540;28;20694;-43
2022/07/31 04:36:18;;;;;;;4.00;3.00;;;19.80;99.90;;;;;;5091629;28;20188;-43
2022/07/31 04:38:44;;;;;;;3.47;3.20;;;19.80;99.90;;;;;;5089451;28;20200;-44
2022/07/31 04:41:10;;;;;;;2.80;2.60;;;19.90;99.90;;;;;;5091520;28;21077;-44
2022/07/31 04:43:36;;;;;;;2.70;2.40;;;19.90;99.90;;;;;;5091626;28;20582;-42
2022/07/31 04:46:01;;;;;;;3.83;3.43;;;20.00;99.90;;;;;;5091109;28;20239;-48
2022/07/31 04:48:27;;;;;;;3.03;2.60;;;20.00;99.90;;;;;;5090780;28;20723;-44
2022/07/31 04:50:53;;;;;;;3.00;2.70;;;20.00;99.90;;;;;;5091030;28;20200;-45
2022/07/31 04:53:18;;;;;;;5.07;3.10;;;20.00;99.90;;;;;;5091257;28;20713;-42
2022/07/31 04:56:32;;;;;;;3.40;3.10;;;20.10;99.90;;;;;;5088490;28;20279;-43
2022/07/31 04:58:30;;;;;;;3.43;3.13;;;20.10;99.90;;;;;;5102292;28;20205;-43
2022/07/31 05:00:55;;;;;;;3.40;2.90;;;20.10;99.90;;;;;;5093299;28;20517;-44
2022/07/31 05:03:21;;;;;;;3.57;3.27;;;20.20;99.90;;;;;;5091238;28;20189;-43
2022/07/31 05:05:48;;;;;;;3.60;2.87;;;20.10;99.90;;;;;;5090566;28;20224;-44
2022/07/31 05:08:14;;;;;;;3.10;2.90;;;20.20;99.90;;;;;;5090355;28;20230;-44
2022/07/31 05:13:24;;;;;;;3.40;3.10;;;20.20;99.90;;;;;;5090929;28;20176;-43
2022/07/31 05:15:50;;;;;;;3.83;3.43;;;20.20;99.90;;;;;;5089404;28;20457;-42
2022/07/31 05:18:15;;;;;;;3.57;3.27;;;20.20;99.90;;;;;;5090074;28;20195;-44
2022/07/31 05:20:41;;;;;;;3.13;2.80;;;20.30;99.90;;;;;;5089224;28;20207;-42
2022/07/31 05:23:07;;;;;;;3.40;3.10;;;20.30;99.90;;;;;;5090585;28;20200;-45
2022/07/31 05:25:32;;;;;;;3.23;2.93;;;20.30;99.90;;;;;;5090535;28;20207;-43
2022/07/31 05:27:58;;;;;;;3.30;3.10;;;20.30;99.90;;;;;;5089858;28;20237;-42
2022/07/31 05:30:24;;;;;;;3.30;3.00;;;20.40;99.90;;;;;;5090637;28;20223;-47
2022/07/31 05:32:49;;;;;;;3.43;3.03;;;20.40;99.90;;;;;;5090301;28;20196;-44
2022/07/31 05:35:15;;;;;;;4.37;3.30;;;20.40;99.90;;;;;;5090469;28;20268;-43
2022/07/31 05:37:41;;;;;;;3.53;3.20;;;20.40;99.90;;;;;;5089598;28;20196;-43
2022/07/31 05:40:07;;;;;;;4.07;3.37;;;20.40;99.90;;;;;;5090531;28;20232;-45
2022/07/31 05:42:33;;;;;;;4.03;3.73;;;20.50;99.90;;;;;;5090296;28;20199;-46
2022/07/31 05:44:58;;;;;;;5.97;3.30;;;20.50;99.90;;;;;;5090226;28;20933;-42
2022/07/31 05:47:24;;;;;;;4.33;3.93;;;20.50;99.90;;;;;;5100612;28;20292;-45
2022/07/31 05:49:50;;;;;;;4.13;3.13;;;20.40;99.90;;;;;;5089943;28;20192;-42
2022/07/31 05:52:19;;;;;;;5.00;3.83;;;20.50;99.90;;;;;;5090248;28;20188;-43
2022/07/31 05:54:44;;;;;;;5.00;3.73;;;20.50;99.90;;;;;;5088904;28;20188;-43
2022/07/31 05:57:10;;;;;;;5.93;3.73;;;20.50;99.90;;;;;;5088390;28;20467;-43
2022/07/31 05:59:36;;;;;;;4.40;4.00;;;20.50;99.90;;;;;;5090075;28;20322;-42
2022/07/31 06:02:02;;;;;;;3.90;3.50;;;20.50;99.90;;;;;;5090029;28;20584;-44
2022/07/31 06:04:28;;;;;;;4.53;3.43;;;20.50;99.90;;;;;;5089894;28;20833;-43
2022/07/31 06:06:53;;;;;;;4.37;3.97;;;20.50;99.90;;;;;;5089228;28;20595;-44
2022/07/31 06:09:19;;;;;;;4.20;3.90;;;20.50;99.90;;;;;;5089950;28;20661;-43
2022/07/31 06:11:44;;;;;;;4.37;3.97;;;20.60;99.90;;;;;;5090115;28;20225;-43
2022/07/31 06:14:10;;;;;;;4.80;4.43;;;20.60;99.90;;;;;;5090009;28;20640;-43
2022/07/31 06:16:36;;;;;;;4.70;4.30;;;20.60;99.90;;;;;;5089334;28;20755;-43
2022/07/31 06:19:01;;;;;;;5.03;4.60;;;20.60;99.90;;;;;;5088102;28;20202;-46
2022/07/31 06:21:27;;;;;;;5.30;4.20;;;20.60;99.90;;;;;;5089865;28;20259;-42
2022/07/31 06:23:53;;;;;;;5.00;4.13;;;20.60;99.90;;;;;;5094035;28;20586;-44
2022/07/31 06:26:18;;;;;;;6.03;4.40;;;20.60;99.90;;;;;;5093779;28;20271;-44
2022/07/31 06:28:44;;;;;;;5.47;4.00;;;20.60;99.90;;;;;;5093492;28;20267;-43
2022/07/31 06:31:18;;;;;;;4.20;3.80;;;20.60;99.90;;;;;;5093724;28;20196;-44
2022/07/31 06:33:43;;;;;;;6.27;4.40;;;20.70;99.90;;;;;;5093923;28;20192;-47
2022/07/31 06:36:09;;;;;;;6.20;4.43;;;20.70;99.90;;;;;;5093827;28;20481;-44
2022/07/31 06:38:35;;;;;;;4.93;4.37;;;20.80;99.90;;;;;;5093394;28;20599;-43
2022/07/31 06:41:00;;;;;;;5.03;4.33;;;20.90;99.90;;;;;;5092457;28;20718;-44
2022/07/31 06:43:26;;;;;;;6.43;4.47;;;21.00;99.90;;;;;;5093777;28;20192;-43
2022/07/31 06:45:52;;;;;;;5.60;4.30;;;21.20;99.90;;;;;;5093399;28;20313;-43
2022/07/31 06:48:17;;;;;;;4.50;4.10;;;21.30;99.90;;;;;;5092864;28;20654;-43
2022/07/31 06:50:43;;;;;;;6.70;4.97;;;21.40;99.90;;;;;;5090368;28;20195;-44
2022/07/31 06:53:09;;;;;;;7.77;4.70;;;21.50;99.90;;;;;;5096316;28;20204;-44
2022/07/31 06:55:35;;;;;;;5.30;4.70;;;21.50;99.90;;;;;;5101257;28;20803;-43
2022/07/31 06:58:00;;;;;;;6.03;4.70;;;21.50;99.90;;;;;;5092765;28;20201;-44
2022/07/31 07:00:26;;;;;;;6.53;5.80;;;21.50;99.90;;;;;;5092711;28;20200;-42
2022/07/31 07:02:52;;;;;;;6.27;5.17;;;21.50;99.90;;;;;;5102638;28;20189;-43
2022/07/31 07:05:18;;;;;;;6.30;5.23;;;21.50;99.90;;;;;;5099220;28;20200;-42
2022/07/31 07:07:43;;;;;;;8.50;4.57;;;21.40;99.90;;;;;;5091888;28;20219;-43
2022/07/31 07:10:09;;;;;;;7.07;4.80;;;21.40;99.90;;;;;;5095901;28;20253;-44
2022/07/31 07:12:35;;;;;;;6.63;5.70;;;21.40;99.90;;;;;;5101979;28;20643;-46
2022/07/31 07:15:00;;;;;;;5.90;5.10;;;21.40;99.90;;;;;;5092757;28;20599;-44
2022/07/31 07:17:26;;;;;;;4.70;4.30;;;21.30;99.90;;;;;;5092501;28;20200;-44
2022/07/31 07:19:52;;;;;;;6.83;5.20;;;21.30;99.90;;;;;;5091585;28;20283;-43
2022/07/31 07:22:17;;;;;;;6.97;5.27;;;21.30;99.90;;;;;;5095238;28;20191;-44
2022/07/31 07:24:43;;;;;;;5.27;4.77;;;21.40;99.90;;;;;;5095730;28;20655;-42
2022/07/31 07:27:09;;;;;;;9.67;4.67;;;21.40;99.90;;;;;;5101818;28;20215;-47
2022/07/31 07:29:35;;;;;;;5.97;4.60;;;21.40;99.90;;;;;;5090388;28;20216;-44
2022/07/31 07:32:00;;;;;;;4.53;4.13;;;21.50;99.90;;;;;;5105065;28;20263;-43
2022/07/31 07:34:26;;;;;;;6.63;5.03;;;21.50;99.90;;;;;;5091438;28;20212;-43
2022/07/31 07:36:52;;;;;;;6.53;4.73;;;21.50;99.90;;;;;;5094253;28;20224;-45
2022/07/31 07:39:18;;;;;;;4.83;4.30;;;21.60;99.90;;;;;;5098442;28;20211;-43
2022/07/31 07:41:44;;;;;;;5.10;4.60;;;21.60;99.90;;;;;;5091591;28;20465;-43
2022/07/31 07:44:09;;;;;;;5.60;5.10;;;21.60;99.90;;;;;;5101774;28;20205;-42
2022/07/31 07:46:35;;;;;;;5.30;4.60;;;21.60;99.90;;;;;;5093872;28;20243;-42
2022/07/31 07:49:02;;;;;;;5.40;4.90;;;21.60;99.90;;;;;;5091895;28;20228;-44
2022/07/31 07:51:28;;;;;;;6.73;5.10;;;21.60;99.90;;;;;;5091522;28;20295;-42
2022/07/31 07:53:54;;;;;;;4.97;4.57;;;21.50;99.90;;;;;;5095497;28;20554;-43
2022/07/31 07:56:19;;;;;;;6.00;4.10;;;21.50;99.90;;;;;;5092271;28;20211;-46
2022/07/31 07:58:47;;;;;;;4.20;3.63;;;21.50;99.90;;;;;;5090371;28;20275;-44
2022/07/31 08:01:13;;;;;;;3.90;3.03;;;21.50;99.90;;;;;;5091973;28;20691;-43
2022/07/31 08:03:39;;;;;;;3.67;3.10;;;21.60;99.90;;;;;;5087562;28;20557;-43
2022/07/31 08:06:05;;;;;;;5.80;3.43;;;21.60;99.90;;;;;;5096880;28;20308;-42
2022/07/31 08:08:30;;;;;;;3.10;2.87;;;21.60;99.90;;;;;;5092021;28;20289;-42
2022/07/31 08:10:56;;;;;;;3.43;2.70;;;21.70;99.90;;;;;;5091044;28;20616;-46
2022/07/31 08:13:22;;;;;;;6.63;2.90;;;21.80;99.90;;;;;;5090507;28;21032;-44
2022/07/31 08:15:48;;;;;;;3.43;2.80;;;21.80;99.90;;;;;;5090728;28;20244;-42
2022/07/31 08:18:13;;;;;;;3.03;2.70;;;21.80;99.90;;;;;;5089453;28;20469;-45
2022/07/31 08:20:39;;;;;;;4.37;3.07;;;21.80;99.90;;;;;;5089443;28;20240;-42
2022/07/31 08:23:05;;;;;;;3.87;3.27;;;21.80;99.90;;;;;;5090927;28;20265;-43
2022/07/31 08:25:31;;;;;;;3.63;2.67;;;21.80;99.90;;;;;;5084391;28;20458;-45
2022/07/31 08:27:57;;;;;;;3.70;2.87;;;21.80;99.90;;;;;;5087913;28;20223;-42
2022/07/31 08:30:24;;;;;;;3.37;2.60;;;21.80;99.90;;;;;;5094160;28;20201;-43
2022/07/31 08:32:50;;;;;;;4.93;2.70;;;21.90;99.90;;;;;;5091577;28;20235;-43
2022/07/31 08:35:16;;;;;;;4.43;2.97;;;22.00;99.90;;;;;;5090969;28;20445;-43
2022/07/31 08:37:42;;;;;;;4.27;2.90;;;22.00;99.90;;;;;;5087321;28;20459;-43
2022/07/31 08:40:08;;;;;;;3.23;2.90;;;22.00;99.90;;;;;;5095041;28;20557;-43
2022/07/31 08:42:36;;;;;;;3.50;3.20;;;22.00;99.90;;;;;;5093687;28;20450;-43
2022/07/31 08:45:05;;;;;;;3.03;2.73;;;22.00;99.90;;;;;;5087190;28;20438;-42
2022/07/31 08:47:32;;;;;;;3.37;3.07;;;21.90;99.90;;;;;;5090019;28;20510;-46
2022/07/31 08:49:58;;;;;;;4.30;2.77;;;21.90;99.90;;;;;;5095058;28;20449;-43
2022/07/31 08:52:26;;;;;;;7.23;3.20;;;21.90;99.90;;;;;;5090608;28;20453;-42
2022/07/31 08:54:52;;;;;;;2.90;2.67;;;21.90;99.90;;;;;;5090410;28;20453;-42
2022/07/31 08:57:19;;;;;;;4.47;2.83;;;21.90;99.90;;;;;;5090217;28;20512;-43
2022/07/31 08:59:45;;;;;;;2.93;2.73;;;21.80;99.90;;;;;;5089143;28;20535;-42
2022/07/31 09:02:12;;;;;;;2.60;2.33;;;21.90;99.90;;;;;;5090296;28;20551;-46
2022/07/31 09:04:38;;;;;;;4.13;2.70;;;21.80;99.90;;;;;;5099020;28;20477;-37
2022/07/31 09:07:04;;;;;;;3.60;2.40;;;21.80;99.90;;;;;;5094946;28;20496;-42
2022/07/31 09:09:30;;;;;;;3.70;2.43;;;21.80;99.90;;;;;;5090771;28;20588;-42
2022/07/31 09:11:56;;;;;;;3.53;2.60;;;21.80;99.90;;;;;;5089589;27;20549;-46
2022/07/31 09:14:28;;;;;;;3.50;2.50;;;21.80;99.90;;;;;;5090890;28;21038;-42
2022/07/31 09:16:55;;;;;;;2.20;2.00;;;21.80;99.90;;;;;;5089496;28;20451;-44
2022/07/31 09:19:23;;;;;;;3.20;2.77;;;21.80;99.90;;;;;;5088998;28;20913;-42
2022/07/31 09:21:49;;;;;;;3.30;2.40;;;21.90;99.90;;;;;;5090034;28;20447;-43
2022/07/31 09:24:27;;;;;;;3.50;2.70;;;21.80;99.90;;;;;;5088755;28;20446;-43
2022/07/31 09:27:02;;;;;;;2.30;2.10;;;21.80;99.90;;;;;;5087569;28;20474;-43
2022/07/31 09:29:35;;;;;;;2.07;1.80;;;21.80;99.90;;;;;;5094619;28;20430;-43
2022/07/31 09:32:15;;;;;;;2.27;2.07;;;21.80;99.90;;;;;;5088653;28;20442;-42
2022/07/31 09:34:42;;;;;;;3.43;2.30;;;21.90;99.90;;;;;;5088935;28;20438;-44
2022/07/31 09:37:19;;;;;;;3.00;2.70;;;21.90;99.90;;;;;;5087599;28;20549;-45
2022/07/31 09:39:50;;;;;;;3.70;2.63;;;22.00;99.90;;;;;;5091061;28;20438;-42
2022/07/31 09:42:17;;;;;;;2.40;2.20;;;22.00;99.90;;;;;;5087640;28;20450;-42
2022/07/31 09:44:45;;;;;;;3.50;1.80;;;21.90;99.90;;;;;;5087748;28;20434;-42
2022/07/31 09:47:31;;;;;;;1.80;1.70;;;22.00;99.90;;;;;;5086557;28;20501;-44
2022/07/31 09:49:59;;;;;;;1.90;1.80;;;22.00;99.90;;;;;;5088481;28;21124;-43
2022/07/31 09:52:27;;;;;;;2.43;1.87;;;22.10;99.90;;;;;;5087386;28;20462;-42
2022/07/31 09:55:11;;;;;;;1.80;1.70;;;22.10;99.90;;;;;;5090891;28;20446;-43
2022/07/31 09:57:38;;;;;;;5.50;2.20;;;22.20;99.90;;;;;;5094583;28;20565;-44
2022/07/31 10:00:08;;;;;;;3.43;1.80;;;22.20;99.90;;;;;;5082115;28;20442;-42
2022/07/31 10:02:37;;;;;;;4.10;1.90;;;22.20;99.90;;;;;;5089412;28;21027;-43
2022/07/31 10:05:05;;;;;;;2.83;2.00;;;22.20;99.90;;;;;;5089427;28;20458;-43
2022/07/31 10:07:35;;;;;;;3.90;2.43;;;22.30;99.90;;;;;;5088549;28;20526;-44
2022/07/31 10:10:02;;;;;;;2.23;2.03;;;22.30;99.90;;;;;;5093405;28;20480;-43
2022/07/31 10:12:30;;;;;;;3.27;2.23;;;22.30;99.90;;;;;;5099337;28;20870;-43
2022/07/31 10:15:01;;;;;;;3.17;1.93;;;22.30;99.90;;;;;;5094331;28;20457;-42
2022/07/31 10:17:30;;;;;;;2.27;1.80;;;22.30;99.90;;;;;;5088295;28;20446;-43
2022/07/31 10:20:01;;;;;;;2.47;2.13;;;22.20;99.90;;;;;;5087398;28;20448;-47
2022/07/31 10:22:32;;;;;;;1.90;1.70;;;22.30;99.90;;;;;;5089320;28;20485;-44
2022/07/31 10:25:00;;;;;;;4.10;2.17;;;22.30;99.90;;;;;;5089289;28;20442;-42
2022/07/31 10:27:28;;;;;;;3.50;2.27;;;22.30;99.90;;;;;;5088097;27;20496;-43
2022/07/31 10:29:55;;;;;;;1.70;1.50;;;22.40;99.90;;;;;;5089082;28;20814;-43
2022/07/31 10:32:21;;;;;;;2.70;2.00;;;22.50;99.90;;;;;;5089270;28;20460;-44
2022/07/31 10:34:47;;;;;;;2.50;2.10;;;22.50;99.90;;;;;;5089186;28;20536;-42
2022/07/31 10:37:37;;;;;;;2.40;2.10;;;22.60;99.90;;;;;;5094794;27;20216;-42
2022/07/31 10:40:23;;;;;;;2.53;2.33;;;22.60;99.90;;;;;;5089242;28;20781;-44
2022/07/31 10:43:20;;;;;;;2.87;2.67;;;22.70;99.90;;;;;;5088438;28;20599;-42
2022/07/31 10:45:52;;;;;;;3.70;2.73;;;22.70;99.90;;;;;;5086510;28;20461;-42
2022/07/31 10:48:18;;;;;;;3.67;2.00;;;22.80;99.90;;;;;;5088075;27;20466;-43
2022/07/31 10:50:45;;;;;;;2.63;2.00;;;22.80;99.90;;;;;;5088894;28;20449;-43
2022/07/31 10:53:15;;;;;;;3.07;2.20;;;22.80;99.90;;;;;;5088995;28;20825;-43
2022/07/31 10:55:42;;;;;;;4.03;2.37;;;22.90;99.90;;;;;;5088758;28;20445;-44
2022/07/31 10:58:18;;;;;;;3.10;2.10;;;22.80;99.90;;;;;;5088007;28;20450;-45
2022/07/31 11:00:44;;;;;;;2.50;2.20;;;22.80;99.90;;;;;;5089003;28;20442;-45
2022/07/31 11:03:13;;;;;;;3.83;2.70;;;22.80;99.90;;;;;;5088828;28;20833;-45
2022/07/31 11:05:38;;;;;;;3.03;2.73;;;22.70;99.90;;;;;;5088609;28;20455;-44
2022/07/31 11:08:09;;;;;;;3.50;2.47;;;22.70;99.90;;;;;;5088219;27;20988;-46
2022/07/31 11:10:34;;;;;;;2.23;2.03;;;22.80;99.90;;;;;;5088883;28;20200;-43
2022/07/31 11:13:00;;;;;;;3.93;2.47;;;22.90;99.90;;;;;;5092387;27;20458;-42
2022/07/31 11:15:27;;;;;;;2.90;2.40;;;23.20;99.90;;;;;;5092842;28;20331;-46
2022/07/31 11:17:53;;;;;;;6.00;3.00;;;23.40;99.90;;;;;;5091894;28;20634;-44
2022/07/31 11:20:30;;;;;;;7.13;2.47;;;23.50;99.90;;;;;;5091082;28;20466;-45
2022/07/31 11:23:00;;;;;;;3.60;2.90;;;23.50;99.90;;;;;;5092109;27;20824;-42
2022/07/31 11:25:31;;;;;;;2.97;2.67;;;23.40;99.90;;;;;;5090315;28;20461;-43
2022/07/31 11:28:08;;;;;;;3.00;2.20;;;23.40;99.90;;;;;;5091739;27;20446;-44
2022/07/31 11:30:45;;;;;;;2.57;2.37;;;23.40;99.90;;;;;;5081295;28;20438;-46
2022/07/31 11:33:11;;;;;;;3.13;2.43;;;23.50;99.90;;;;;;5092290;28;20437;-47
2022/07/31 11:35:38;;;;;;;3.00;2.70;;;23.60;99.90;;;;;;5091733;28;20790;-43
2022/07/31 11:38:03;;;;;;;2.80;2.60;;;23.60;99.90;;;;;;5091166;27;20454;-43
2022/07/31 11:40:29;;;;;;;4.10;2.60;;;23.50;99.90;;;;;;5091852;28;20430;-43
2022/07/31 11:42:56;;;;;;;3.10;2.90;;;23.50;99.90;;;;;;5092732;28;20295;-44
2022/07/31 11:45:22;;;;;;;3.53;2.77;;;23.50;99.90;;;;;;5092363;28;20710;-43
2022/07/31 11:47:50;;;;;;;2.77;2.50;;;23.50;99.90;;;;;;5091576;28;20466;-43
2022/07/31 11:50:16;;;;;;;3.43;3.10;;;23.40;99.90;;;;;;5091530;28;20643;-43
2022/07/31 11:52:42;;;;;;;3.00;2.70;;;23.40;99.90;;;;;;5091870;28;20422;-44
2022/07/31 11:55:12;;;;;;;3.37;3.10;;;23.40;99.90;;;;;;5091561;28;20414;-44
2022/07/31 11:57:39;;;;;;;4.97;3.37;;;23.40;99.90;;;;;;5089389;28;20410;-43
2022/07/31 12:00:07;;;;;;;2.80;2.60;;;23.40;99.90;;;;;;5091611;28;20825;-45
2022/07/31 12:02:33;;;;;;;4.10;3.00;;;23.40;99.90;;;;;;5092090;28;20830;-43
2022/07/31 12:05:03;;;;;;;3.47;2.80;;;23.40;99.90;;;;;;5092108;28;20442;-43
2022/07/31 12:07:28;;;;;;;4.97;3.13;;;23.30;99.90;;;;;;5091752;28;20576;-43
2022/07/31 12:09:54;;;;;;;3.67;3.37;;;23.30;99.90;;;;;;5079878;28;20414;-43
2022/07/31 12:12:20;;;;;;;3.30;2.60;;;23.20;99.90;;;;;;5090944;28;20732;-44
2022/07/31 12:14:46;;;;;;;3.20;2.93;;;23.20;99.90;;;;;;5091919;28;20418;-42
2022/07/31 12:17:20;;;;;;;3.70;3.10;;;23.20;99.90;;;;;;5090960;28;20422;-45
2022/07/31 12:19:45;;;;;;;3.13;2.87;;;23.20;99.90;;;;;;5090264;28;20222;-42
2022/07/31 12:22:13;;;;;;;3.83;3.30;;;23.10;99.90;;;;;;5090463;28;20419;-43
2022/07/31 12:24:38;;;;;;;5.57;3.57;;;23.10;99.90;;;;;;5091827;28;20195;-44
2022/07/31 12:27:05;;;;;;;3.57;3.03;;;23.10;99.90;;;;;;5091055;28;20478;-43
2022/07/31 12:29:38;;;;;;;4.73;2.97;;;23.10;99.90;;;;;;5091761;28;20183;-43
2022/07/31 12:32:05;;;;;;;5.97;3.30;;;23.10;99.90;;;;;;5091839;28;20429;-44
2022/07/31 12:34:33;;;;;;;4.50;3.33;;;23.20;99.90;;;;;;5091508;28;20940;-43
2022/07/31 12:37:10;;;;;;;4.33;3.50;;;23.30;99.90;;;;;;5091045;28;21113;-43
2022/07/31 12:39:52;;;;;;;4.17;3.30;;;23.50;99.90;;;;;;5091296;28;20422;-43
2022/07/31 12:42:21;;;;;;;3.40;3.10;;;23.60;99.90;;;;;;5091096;28;20418;-44
2022/07/31 12:44:48;;;;;;;3.70;3.40;;;23.80;99.90;;;;;;5091268;28;20442;-43
2022/07/31 12:47:20;;;;;;;3.87;3.27;;;23.90;99.90;;;;;;5090574;28;20454;-43
2022/07/31 12:49:46;;;;;;;3.67;3.20;;;24.10;99.90;;;;;;5090872;28;20422;-45
2022/07/31 12:52:12;;;;;;;6.10;3.10;;;24.20;99.90;;;;;;5089646;28;20496;-44